sensor_id;sensor_type;location;lat;lon;timestamp;P1;P2;P0
69222;PMS7003;56514;51.816;-0.026;2022-11-15T00:00:10;0.00;0.00;0.00
69222;PMS7003;56514;51.816;-0.026;2022-11-15T00:03:15;0.00;0.00;0.00
69222;PMS7003;56514;51.816;-0.026;2022-11-15T00:06:24;0.00;0.00;0.00
69222;PMS7003;56514;51.816;-0.026;2022-11-15T00:09:29;0.00;0.00;0.00
69222;PMS7003;56514;51.816;-0.026;2022-11-15T00:12:38;0.00;0.00;0.00
69222;PMS7003;56514;51.816;-0.026;2022-11-15T00:15:47;0.00;0.00;0.00
69222;PMS7003;56514;51.816;-0.026;2022-11-15T00:18:56;0.00;0.00;0.00
69222;PMS7003;56514;51.816;-0.026;2022-11-15T00:22:06;0.00;0.00;0.00
69222;PMS7003;56514;51.816;-0.026;2022-11-15T00:25:15;0.00;0.00;0.00
69222;PMS7003;56514;51.816;-0.026;2022-11-15T00:28:25;0.00;0.00;0.00
69222;PMS7003;56514;51.816;-0.026;2022-11-15T00:31:34;0.00;0.00;0.00
69222;PMS7003;56514;51.816;-0.026;2022-11-15T00:34:43;0.00;0.00;0.00
69222;PMS7003;56514;51.816;-0.026;2022-11-15T00:37:52;0.00;0.00;0.00
69222;PMS7003;56514;51.816;-0.026;2022-11-15T00:41:01;0.00;0.00;0.00
69222;PMS7003;56514;51.816;-0.026;2022-11-15T00:44:12;0.00;0.00;0.00
69222;PMS7003;56514;51.816;-0.026;2022-11-15T00:47:22;0.00;0.00;0.00
69222;PMS7003;56514;51.816;-0.026;2022-11-15T00:50:07;0.00;0.00;0.00
69222;PMS7003;56514;51.816;-0.026;2022-11-15T00:52:52;0.00;0.00;0.00
69222;PMS7003;56514;51.816;-0.026;2022-11-15T00:55:37;0.00;0.00;0.00
69222;PMS7003;56514;51.816;-0.026;2022-11-15T00:58:22;0.00;0.00;0.00
69222;PMS7003;56514;51.816;-0.026;2022-11-15T01:01:08;0.00;0.00;0.00
69222;PMS7003;56514;51.816;-0.026;2022-11-15T01:03:54;0.00;0.00;0.00
69222;PMS7003;56514;51.816;-0.026;2022-11-15T01:06:39;0.00;0.00;0.00
69222;PMS7003;56514;51.816;-0.026;2022-11-15T01:09:23;0.00;0.00;0.00
69222;PMS7003;56514;51.816;-0.026;2022-11-15T01:12:08;0.00;0.00;0.00
69222;PMS7003;56514;51.816;-0.026;2022-11-15T01:14:53;0.00;0.00;0.00
69222;PMS7003;56514;51.816;-0.026;2022-11-15T01:17:41;0.00;0.00;0.00
69222;PMS7003;56514;51.816;-0.026;2022-11-15T01:20:25;0.00;0.00;0.00
69222;PMS7003;56514;51.816;-0.026;2022-11-15T01:23:10;0.00;0.00;0.00
69222;PMS7003;56514;51.816;-0.026;2022-11-15T01:25:58;0.00;0.00;0.00
69222;PMS7003;56514;51.816;-0.026;2022-11-15T01:28:44;1.00;0.00;0.00
69222;PMS7003;56514;51.816;-0.026;2022-11-15T01:31:29;0.00;0.00;0.00
69222;PMS7003;56514;51.816;-0.026;2022-11-15T01:34:13;0.00;0.00;0.00
69222;PMS7003;56514;51.816;-0.026;2022-11-15T01:36:59;0.00;0.00;0.00
69222;PMS7003;56514;51.816;-0.026;2022-11-15T01:39:45;0.25;0.25;0.00
69222;PMS7003;56514;51.816;-0.026;2022-11-15T01:42:29;0.00;0.00;0.00
69222;PMS7003;56514;51.816;-0.026;2022-11-15T01:45:15;0.00;0.00;0.00
69222;PMS7003;56514;51.816;-0.026;2022-11-15T01:48:00;0.00;0.00;0.00
69222;PMS7003;56514;51.816;-0.026;2022-11-15T01:50:45;0.00;0.00;0.00
69222;PMS7003;56514;51.816;-0.026;2022-11-15T01:53:30;0.00;0.00;0.00
69222;PMS7003;56514;51.816;-0.026;2022-11-15T01:56:18;0.00;0.00;0.00
69222;PMS7003;56514;51.816;-0.026;2022-11-15T01:59:07;0.50;0.50;0.00
69222;PMS7003;56514;51.816;-0.026;2022-11-15T02:01:53;0.00;0.00;0.00
69222;PMS7003;56514;51.816;-0.026;2022-11-15T02:04:42;0.00;0.00;0.00
69222;PMS7003;56514;51.816;-0.026;2022-11-15T02:07:29;0.00;0.00;0.00
69222;PMS7003;56514;51.816;-0.026;2022-11-15T02:10:17;0.00;0.00;0.00
69222;PMS7003;56514;51.816;-0.026;2022-11-15T02:13:05;0.00;0.00;0.00
69222;PMS7003;56514;51.816;-0.026;2022-11-15T02:34:28;0.00;0.00;0.00
69222;PMS7003;56514;51.816;-0.026;2022-11-15T02:37:32;0.00;0.00;0.00
69222;PMS7003;56514;51.816;-0.026;2022-11-15T02:40:44;0.00;0.00;0.00
69222;PMS7003;56514;51.816;-0.026;2022-11-15T02:43:38;0.00;0.00;0.00
69222;PMS7003;56514;51.816;-0.026;2022-11-15T02:49:51;0.00;0.00;0.00
69222;PMS7003;56514;51.816;-0.026;2022-11-15T02:52:38;0.00;0.00;0.00
69222;PMS7003;56514;51.816;-0.026;2022-11-15T03:01:15;0.00;0.00;0.00
69222;PMS7003;56514;51.816;-0.026;2022-11-15T03:04:43;0.00;0.00;0.00
69222;PMS7003;56514;51.816;-0.026;2022-11-15T03:10:32;0.00;0.00;0.00
69222;PMS7003;56514;51.816;-0.026;2022-11-15T03:13:28;0.00;0.00;0.00
69222;PMS7003;56514;51.816;-0.026;2022-11-15T03:19:44;0.00;0.00;0.00
69222;PMS7003;56514;51.816;-0.026;2022-11-15T03:22:54;0.00;0.00;0.00
69222;PMS7003;56514;51.816;-0.026;2022-11-15T03:25:45;0.00;0.00;0.00
69222;PMS7003;56514;51.816;-0.026;2022-11-15T03:28:36;0.00;0.00;0.00
69222;PMS7003;56514;51.816;-0.026;2022-11-15T03:31:28;0.00;0.00;0.00
69222;PMS7003;56514;51.816;-0.026;2022-11-15T03:34:37;0.00;0.00;0.00
69222;PMS7003;56514;51.816;-0.026;2022-11-15T03:37:34;0.00;0.00;0.00
69222;PMS7003;56514;51.816;-0.026;2022-11-15T03:40:22;0.00;0.00;0.00
69222;PMS7003;56514;51.816;-0.026;2022-11-15T03:46:24;0.00;0.00;0.00
69222;PMS7003;56514;51.816;-0.026;2022-11-15T03:49:17;0.00;0.00;0.00
69222;PMS7003;56514;51.816;-0.026;2022-11-15T03:52:07;0.50;0.50;0.00
69222;PMS7003;56514;51.816;-0.026;2022-11-15T03:54:55;0.00;0.00;0.00
69222;PMS7003;56514;51.816;-0.026;2022-11-15T03:57:41;0.00;0.00;0.00
69222;PMS7003;56514;51.816;-0.026;2022-11-15T04:00:27;1.00;0.00;0.00
69222;PMS7003;56514;51.816;-0.026;2022-11-15T04:03:12;0.00;0.00;0.00
69222;PMS7003;56514;51.816;-0.026;2022-11-15T04:05:57;1.00;1.00;1.00
69222;PMS7003;56514;51.816;-0.026;2022-11-15T04:08:42;0.00;0.00;0.00
69222;PMS7003;56514;51.816;-0.026;2022-11-15T04:11:27;0.00;0.00;0.00
69222;PMS7003;56514;51.816;-0.026;2022-11-15T04:14:11;0.00;0.00;0.00
69222;PMS7003;56514;51.816;-0.026;2022-11-15T04:16:56;0.00;0.00;0.00
69222;PMS7003;56514;51.816;-0.026;2022-11-15T04:19:41;0.00;0.00;0.00
69222;PMS7003;56514;51.816;-0.026;2022-11-15T04:22:46;1.00;1.00;0.00
69222;PMS7003;56514;51.816;-0.026;2022-11-15T04:25:50;0.00;0.00;0.00
69222;PMS7003;56514;51.816;-0.026;2022-11-15T04:28:37;0.00;0.00;0.00
69222;PMS7003;56514;51.816;-0.026;2022-11-15T04:31:42;0.00;0.00;0.00
69222;PMS7003;56514;51.816;-0.026;2022-11-15T04:34:26;0.00;0.00;0.00
69222;PMS7003;56514;51.816;-0.026;2022-11-15T04:37:11;0.00;0.00;0.00
69222;PMS7003;56514;51.816;-0.026;2022-11-15T04:39:56;0.00;0.00;0.00
69222;PMS7003;56514;51.816;-0.026;2022-11-15T04:42:41;0.00;0.00;0.00
69222;PMS7003;56514;51.816;-0.026;2022-11-15T04:45:27;0.00;0.00;0.00
69222;PMS7003;56514;51.816;-0.026;2022-11-15T04:48:11;0.00;0.00;0.00
69222;PMS7003;56514;51.816;-0.026;2022-11-15T04:50:56;0.00;0.00;0.00
69222;PMS7003;56514;51.816;-0.026;2022-11-15T04:53:41;0.00;0.00;0.00
69222;PMS7003;56514;51.816;-0.026;2022-11-15T04:56:25;0.00;0.00;0.00
69222;PMS7003;56514;51.816;-0.026;2022-11-15T04:59:10;0.00;0.00;0.00
69222;PMS7003;56514;51.816;-0.026;2022-11-15T05:01:55;0.00;0.00;0.00
69222;PMS7003;56514;51.816;-0.026;2022-11-15T05:04:40;0.00;0.00;0.00
69222;PMS7003;56514;51.816;-0.026;2022-11-15T05:07:24;0.00;0.00;0.00
69222;PMS7003;56514;51.816;-0.026;2022-11-15T05:10:09;0.00;0.00;0.00
69222;PMS7003;56514;51.816;-0.026;2022-11-15T05:12:55;0.00;0.00;0.00
69222;PMS7003;56514;51.816;-0.026;2022-11-15T05:15:40;0.00;0.00;0.00
69222;PMS7003;56514;51.816;-0.026;2022-11-15T05:18:24;0.00;0.00;0.00
69222;PMS7003;56514;51.816;-0.026;2022-11-15T05:21:11;0.00;0.00;0.00
69222;PMS7003;56514;51.816;-0.026;2022-11-15T05:23:57;0.00;0.00;0.00
69222;PMS7003;56514;51.816;-0.026;2022-11-15T05:26:42;0.00;0.00;0.00
69222;PMS7003;56514;51.816;-0.026;2022-11-15T05:29:27;0.00;0.00;0.00
69222;PMS7003;56514;51.816;-0.026;2022-11-15T05:32:12;0.00;0.00;0.00
69222;PMS7003;56514;51.816;-0.026;2022-11-15T05:34:58;0.25;0.25;0.00
69222;PMS7003;56514;51.816;-0.026;2022-11-15T05:37:43;0.00;0.00;0.00
69222;PMS7003;56514;51.816;-0.026;2022-11-15T05:40:28;0.00;0.00;0.00
69222;PMS7003;56514;51.816;-0.026;2022-11-15T05:43:15;0.50;0.00;0.00
69222;PMS7003;56514;51.816;-0.026;2022-11-15T05:46:00;0.00;0.00;0.00
69222;PMS7003;56514;51.816;-0.026;2022-11-15T05:48:48;0.00;0.00;0.00
69222;PMS7003;56514;51.816;-0.026;2022-11-15T05:51:36;0.00;0.00;0.00
69222;PMS7003;56514;51.816;-0.026;2022-11-15T05:54:22;0.00;0.00;0.00
69222;PMS7003;56514;51.816;-0.026;2022-11-15T05:57:09;0.00;0.00;0.00
69222;PMS7003;56514;51.816;-0.026;2022-11-15T05:59:54;0.00;0.00;0.00
69222;PMS7003;56514;51.816;-0.026;2022-11-15T06:02:39;0.00;0.00;0.00
69222;PMS7003;56514;51.816;-0.026;2022-11-15T06:05:24;0.00;0.00;0.00
69222;PMS7003;56514;51.816;-0.026;2022-11-15T06:08:09;0.00;0.00;0.00
69222;PMS7003;56514;51.816;-0.026;2022-11-15T06:10:53;0.00;0.00;0.00
69222;PMS7003;56514;51.816;-0.026;2022-11-15T06:13:38;0.00;0.00;0.00
69222;PMS7003;56514;51.816;-0.026;2022-11-15T06:16:23;0.00;0.00;0.00
69222;PMS7003;56514;51.816;-0.026;2022-11-15T06:19:08;0.00;0.00;0.00
69222;PMS7003;56514;51.816;-0.026;2022-11-15T06:21:52;0.00;0.00;0.00
69222;PMS7003;56514;51.816;-0.026;2022-11-15T06:24:37;0.75;0.75;0.50
69222;PMS7003;56514;51.816;-0.026;2022-11-15T06:27:22;0.00;0.00;0.00
69222;PMS7003;56514;51.816;-0.026;2022-11-15T06:30:07;0.00;0.00;0.00
69222;PMS7003;56514;51.816;-0.026;2022-11-15T06:32:57;0.00;0.00;0.00
69222;PMS7003;56514;51.816;-0.026;2022-11-15T06:35:44;0.00;0.00;0.00
69222;PMS7003;56514;51.816;-0.026;2022-11-15T06:38:29;1.00;1.00;0.00
69222;PMS7003;56514;51.816;-0.026;2022-11-15T06:41:17;0.00;0.00;0.00
69222;PMS7003;56514;51.816;-0.026;2022-11-15T06:44:02;0.00;0.00;0.00
69222;PMS7003;56514;51.816;-0.026;2022-11-15T06:46:47;0.50;0.50;0.25
69222;PMS7003;56514;51.816;-0.026;2022-11-15T06:49:32;0.00;0.00;0.00
69222;PMS7003;56514;51.816;-0.026;2022-11-15T06:52:17;0.00;0.00;0.00
69222;PMS7003;56514;51.816;-0.026;2022-11-15T06:55:06;0.00;0.00;0.00
69222;PMS7003;56514;51.816;-0.026;2022-11-15T06:57:51;1.75;0.50;0.00
69222;PMS7003;56514;51.816;-0.026;2022-11-15T07:00:36;0.00;0.00;0.00
69222;PMS7003;56514;51.816;-0.026;2022-11-15T07:03:22;0.00;0.00;0.00
69222;PMS7003;56514;51.816;-0.026;2022-11-15T07:06:07;0.00;0.00;0.00
69222;PMS7003;56514;51.816;-0.026;2022-11-15T07:08:53;0.00;0.00;0.00
69222;PMS7003;56514;51.816;-0.026;2022-11-15T07:11:37;0.00;0.00;0.00
69222;PMS7003;56514;51.816;-0.026;2022-11-15T07:14:22;0.00;0.00;0.00
69222;PMS7003;56514;51.816;-0.026;2022-11-15T07:17:07;0.00;0.00;0.00
69222;PMS7003;56514;51.816;-0.026;2022-11-15T07:19:52;0.00;0.00;0.00
69222;PMS7003;56514;51.816;-0.026;2022-11-15T07:22:37;1.00;1.00;0.00
69222;PMS7003;56514;51.816;-0.026;2022-11-15T07:25:22;0.00;0.00;0.00
69222;PMS7003;56514;51.816;-0.026;2022-11-15T07:28:07;0.00;0.00;0.00
69222;PMS7003;56514;51.816;-0.026;2022-11-15T07:30:52;0.00;0.00;0.00
69222;PMS7003;56514;51.816;-0.026;2022-11-15T07:33:37;0.00;0.00;0.00
69222;PMS7003;56514;51.816;-0.026;2022-11-15T07:36:22;0.00;0.00;0.00
69222;PMS7003;56514;51.816;-0.026;2022-11-15T07:39:07;0.00;0.00;0.00
69222;PMS7003;56514;51.816;-0.026;2022-11-15T07:41:52;0.00;0.00;0.00
69222;PMS7003;56514;51.816;-0.026;2022-11-15T07:44:57;0.00;0.00;0.00
69222;PMS7003;56514;51.816;-0.026;2022-11-15T07:47:44;0.00;0.00;0.00
69222;PMS7003;56514;51.816;-0.026;2022-11-15T07:50:30;0.00;0.00;0.00
69222;PMS7003;56514;51.816;-0.026;2022-11-15T07:53:16;0.00;0.00;0.00
69222;PMS7003;56514;51.816;-0.026;2022-11-15T07:56:01;0.00;0.00;0.00
69222;PMS7003;56514;51.816;-0.026;2022-11-15T07:58:46;0.75;0.75;0.00
69222;PMS7003;56514;51.816;-0.026;2022-11-15T08:01:33;0.00;0.00;0.00
69222;PMS7003;56514;51.816;-0.026;2022-11-15T08:04:18;0.00;0.00;0.00
69222;PMS7003;56514;51.816;-0.026;2022-11-15T08:07:03;1.00;1.00;0.00
69222;PMS7003;56514;51.816;-0.026;2022-11-15T08:09:48;0.25;0.25;0.00
69222;PMS7003;56514;51.816;-0.026;2022-11-15T08:12:33;0.00;0.00;0.00
69222;PMS7003;56514;51.816;-0.026;2022-11-15T08:15:18;0.00;0.00;0.00
69222;PMS7003;56514;51.816;-0.026;2022-11-15T08:18:04;0.00;0.00;0.00
69222;PMS7003;56514;51.816;-0.026;2022-11-15T08:20:51;0.00;0.00;0.00
69222;PMS7003;56514;51.816;-0.026;2022-11-15T08:23:35;0.00;0.00;0.00
69222;PMS7003;56514;51.816;-0.026;2022-11-15T08:26:21;0.00;0.00;0.00
69222;PMS7003;56514;51.816;-0.026;2022-11-15T08:29:06;0.00;0.00;0.00
69222;PMS7003;56514;51.816;-0.026;2022-11-15T08:31:54;0.00;0.00;0.00
69222;PMS7003;56514;51.816;-0.026;2022-11-15T08:34:40;0.00;0.00;0.00
69222;PMS7003;56514;51.816;-0.026;2022-11-15T08:37:25;0.00;0.00;0.00
69222;PMS7003;56514;51.816;-0.026;2022-11-15T08:40:11;0.00;0.00;0.00
69222;PMS7003;56514;51.816;-0.026;2022-11-15T08:42:56;0.00;0.00;0.00
69222;PMS7003;56514;51.816;-0.026;2022-11-15T08:45:43;1.00;1.00;0.00
69222;PMS7003;56514;51.816;-0.026;2022-11-15T08:48:29;1.00;1.00;0.25
69222;PMS7003;56514;51.816;-0.026;2022-11-15T08:51:14;0.00;0.00;0.00
69222;PMS7003;56514;51.816;-0.026;2022-11-15T08:53:59;0.25;0.25;0.00
69222;PMS7003;56514;51.816;-0.026;2022-11-15T08:56:44;1.00;1.00;0.00
69222;PMS7003;56514;51.816;-0.026;2022-11-15T08:59:28;0.25;0.25;0.25
69222;PMS7003;56514;51.816;-0.026;2022-11-15T09:02:13;0.00;0.00;0.00
69222;PMS7003;56514;51.816;-0.026;2022-11-15T09:04:59;0.00;0.00;0.00
69222;PMS7003;56514;51.816;-0.026;2022-11-15T09:07:44;1.00;1.00;1.00
69222;PMS7003;56514;51.816;-0.026;2022-11-15T09:10:28;0.00;0.00;0.00
69222;PMS7003;56514;51.816;-0.026;2022-11-15T09:13:14;0.25;0.25;0.00
69222;PMS7003;56514;51.816;-0.026;2022-11-15T09:16:03;1.00;1.00;1.00
69222;PMS7003;56514;51.816;-0.026;2022-11-15T09:18:53;1.00;1.00;1.00
69222;PMS7003;56514;51.816;-0.026;2022-11-15T09:21:39;0.25;0.25;0.00
69222;PMS7003;56514;51.816;-0.026;2022-11-15T09:24:24;1.00;1.00;0.00
69222;PMS7003;56514;51.816;-0.026;2022-11-15T09:27:09;0.00;0.00;0.00
69222;PMS7003;56514;51.816;-0.026;2022-11-15T09:29:53;0.00;0.00;0.00
69222;PMS7003;56514;51.816;-0.026;2022-11-15T09:32:41;0.00;0.00;0.00
69222;PMS7003;56514;51.816;-0.026;2022-11-15T09:35:26;0.00;0.00;0.00
69222;PMS7003;56514;51.816;-0.026;2022-11-15T09:38:11;0.00;0.00;0.00
69222;PMS7003;56514;51.816;-0.026;2022-11-15T09:40:59;0.25;0.25;0.00
69222;PMS7003;56514;51.816;-0.026;2022-11-15T09:47:17;0.00;0.00;0.00
69222;PMS7003;56514;51.816;-0.026;2022-11-15T09:50:47;0.00;0.00;0.00
69222;PMS7003;56514;51.816;-0.026;2022-11-15T09:53:36;0.00;0.00;0.00
69222;PMS7003;56514;51.816;-0.026;2022-11-15T09:56:32;0.00;0.00;0.00
69222;PMS7003;56514;51.816;-0.026;2022-11-15T09:59:32;0.50;0.50;0.50
69222;PMS7003;56514;51.816;-0.026;2022-11-15T10:05:47;0.00;0.00;0.00
69222;PMS7003;56514;51.816;-0.026;2022-11-15T10:08:45;0.00;0.00;0.00
69222;PMS7003;56514;51.816;-0.026;2022-11-15T10:11:36;0.00;0.00;0.00
69222;PMS7003;56514;51.816;-0.026;2022-11-15T10:14:23;0.00;0.00;0.00
69222;PMS7003;56514;51.816;-0.026;2022-11-15T10:23:10;0.00;0.00;0.00
69222;PMS7003;56514;51.816;-0.026;2022-11-15T10:25:58;0.00;0.00;0.00
69222;PMS7003;56514;51.816;-0.026;2022-11-15T10:28:44;0.00;0.00;0.00
69222;PMS7003;56514;51.816;-0.026;2022-11-15T10:31:29;0.00;0.00;0.00
69222;PMS7003;56514;51.816;-0.026;2022-11-15T10:34:16;0.00;0.00;0.00
69222;PMS7003;56514;51.816;-0.026;2022-11-15T10:37:03;0.00;0.00;0.00
69222;PMS7003;56514;51.816;-0.026;2022-11-15T10:40:02;0.00;0.00;0.00
69222;PMS7003;56514;51.816;-0.026;2022-11-15T10:45:54;0.00;0.00;0.00
69222;PMS7003;56514;51.816;-0.026;2022-11-15T10:48:39;0.00;0.00;0.00
69222;PMS7003;56514;51.816;-0.026;2022-11-15T10:51:26;0.00;0.00;0.00
69222;PMS7003;56514;51.816;-0.026;2022-11-15T10:54:12;0.00;0.00;0.00
69222;PMS7003;56514;51.816;-0.026;2022-11-15T10:57:16;0.00;0.00;0.00
69222;PMS7003;56514;51.816;-0.026;2022-11-15T11:00:22;0.00;0.00;0.00
69222;PMS7003;56514;51.816;-0.026;2022-11-15T11:06:19;0.00;0.00;0.00
69222;PMS7003;56514;51.816;-0.026;2022-11-15T11:09:05;0.00;0.00;0.00
69222;PMS7003;56514;51.816;-0.026;2022-11-15T11:12:09;0.00;0.00;0.00
69222;PMS7003;56514;51.816;-0.026;2022-11-15T11:14:55;0.00;0.00;0.00
69222;PMS7003;56514;51.816;-0.026;2022-11-15T11:17:49;0.00;0.00;0.00
69222;PMS7003;56514;51.816;-0.026;2022-11-15T11:20:46;0.00;0.00;0.00
69222;PMS7003;56514;51.816;-0.026;2022-11-15T11:30:18;0.00;0.00;0.00
69222;PMS7003;56514;51.816;-0.026;2022-11-15T11:36:15;0.00;0.00;0.00
69222;PMS7003;56514;51.816;-0.026;2022-11-15T11:42:17;0.00;0.00;0.00
69222;PMS7003;56514;51.816;-0.026;2022-11-15T11:46:02;0.00;0.00;0.00
69222;PMS7003;56514;51.816;-0.026;2022-11-15T11:51:43;0.00;0.00;0.00
69222;PMS7003;56514;51.816;-0.026;2022-11-15T11:54:50;0.00;0.00;0.00
69222;PMS7003;56514;51.816;-0.026;2022-11-15T11:57:52;0.00;0.00;0.00
69222;PMS7003;56514;51.816;-0.026;2022-11-15T12:00:51;0.00;0.00;0.00
69222;PMS7003;56514;51.816;-0.026;2022-11-15T12:03:44;0.00;0.00;0.00
69222;PMS7003;56514;51.816;-0.026;2022-11-15T12:06:49;0.00;0.00;0.00
69222;PMS7003;56514;51.816;-0.026;2022-11-15T12:15:41;0.00;0.00;0.00
69222;PMS7003;56514;51.816;-0.026;2022-11-15T12:18:33;0.00;0.00;0.00
69222;PMS7003;56514;51.816;-0.026;2022-11-15T12:30:23;0.00;0.00;0.00
69222;PMS7003;56514;51.816;-0.026;2022-11-15T12:33:36;0.00;0.00;0.00
69222;PMS7003;56514;51.816;-0.026;2022-11-15T12:39:08;0.00;0.00;0.00
69222;PMS7003;56514;51.816;-0.026;2022-11-15T12:47:27;0.00;0.00;0.00
69222;PMS7003;56514;51.816;-0.026;2022-11-15T12:50:16;0.00;0.00;0.00
69222;PMS7003;56514;51.816;-0.026;2022-11-15T12:58:57;0.00;0.00;0.00
69222;PMS7003;56514;51.816;-0.026;2022-11-15T13:04:29;0.00;0.00;0.00
69222;PMS7003;56514;51.816;-0.026;2022-11-15T13:13:41;0.00;0.00;0.00
69222;PMS7003;56514;51.816;-0.026;2022-11-15T13:16:28;0.00;0.00;0.00
69222;PMS7003;56514;51.816;-0.026;2022-11-15T13:19:14;0.00;0.00;0.00
69222;PMS7003;56514;51.816;-0.026;2022-11-15T13:22:00;0.00;0.00;0.00
69222;PMS7003;56514;51.816;-0.026;2022-11-15T13:25:15;0.00;0.00;0.00
69222;PMS7003;56514;51.816;-0.026;2022-11-15T13:28:22;0.00;0.00;0.00
69222;PMS7003;56514;51.816;-0.026;2022-11-15T13:31:23;0.00;0.00;0.00
69222;PMS7003;56514;51.816;-0.026;2022-11-15T13:34:21;0.00;0.00;0.00
69222;PMS7003;56514;51.816;-0.026;2022-11-15T13:37:12;0.00;0.00;0.00
69222;PMS7003;56514;51.816;-0.026;2022-11-15T13:40:23;0.00;0.00;0.00
69222;PMS7003;56514;51.816;-0.026;2022-11-15T13:43:25;0.00;0.00;0.00
69222;PMS7003;56514;51.816;-0.026;2022-11-15T13:46:18;0.00;0.00;0.00
69222;PMS7003;56514;51.816;-0.026;2022-11-15T13:49:07;0.00;0.00;0.00
69222;PMS7003;56514;51.816;-0.026;2022-11-15T13:51:56;0.00;0.00;0.00
69222;PMS7003;56514;51.816;-0.026;2022-11-15T13:57:38;0.00;0.00;0.00
69222;PMS7003;56514;51.816;-0.026;2022-11-15T14:00:37;0.00;0.00;0.00
69222;PMS7003;56514;51.816;-0.026;2022-11-15T14:03:25;0.00;0.00;0.00
69222;PMS7003;56514;51.816;-0.026;2022-11-15T14:06:16;0.00;0.00;0.00
69222;PMS7003;56514;51.816;-0.026;2022-11-15T14:11:53;0.00;0.00;0.00
69222;PMS7003;56514;51.816;-0.026;2022-11-15T14:14:46;0.00;0.00;0.00
69222;PMS7003;56514;51.816;-0.026;2022-11-15T14:17:35;0.00;0.00;0.00
69222;PMS7003;56514;51.816;-0.026;2022-11-15T14:29:23;0.00;0.00;0.00
69222;PMS7003;56514;51.816;-0.026;2022-11-15T14:32:15;0.00;0.00;0.00
69222;PMS7003;56514;51.816;-0.026;2022-11-15T14:35:02;0.00;0.00;0.00
69222;PMS7003;56514;51.816;-0.026;2022-11-15T14:37:48;0.00;0.00;0.00
69222;PMS7003;56514;51.816;-0.026;2022-11-15T14:40:34;0.00;0.00;0.00
69222;PMS7003;56514;51.816;-0.026;2022-11-15T14:43:19;0.00;0.00;0.00
69222;PMS7003;56514;51.816;-0.026;2022-11-15T14:46:04;0.00;0.00;0.00
69222;PMS7003;56514;51.816;-0.026;2022-11-15T14:48:48;0.00;0.00;0.00
69222;PMS7003;56514;51.816;-0.026;2022-11-15T14:51:33;0.00;0.00;0.00
69222;PMS7003;56514;51.816;-0.026;2022-11-15T14:54:18;0.00;0.00;0.00
69222;PMS7003;56514;51.816;-0.026;2022-11-15T14:57:02;0.00;0.00;0.00
69222;PMS7003;56514;51.816;-0.026;2022-11-15T14:59:47;0.00;0.00;0.00
69222;PMS7003;56514;51.816;-0.026;2022-11-15T15:02:35;0.00;0.00;0.00
69222;PMS7003;56514;51.816;-0.026;2022-11-15T15:08:35;0.00;0.00;0.00
69222;PMS7003;56514;51.816;-0.026;2022-11-15T15:11:23;0.00;0.00;0.00
69222;PMS7003;56514;51.816;-0.026;2022-11-15T15:14:10;0.00;0.00;0.00
69222;PMS7003;56514;51.816;-0.026;2022-11-15T15:16:56;0.00;0.00;0.00
69222;PMS7003;56514;51.816;-0.026;2022-11-15T15:19:40;0.00;0.00;0.00
69222;PMS7003;56514;51.816;-0.026;2022-11-15T15:22:26;0.00;0.00;0.00
69222;PMS7003;56514;51.816;-0.026;2022-11-15T15:25:18;0.00;0.00;0.00
69222;PMS7003;56514;51.816;-0.026;2022-11-15T15:28:11;0.80;0.80;0.80
69222;PMS7003;56514;51.816;-0.026;2022-11-15T15:30:57;0.00;0.00;0.00
69222;PMS7003;56514;51.816;-0.026;2022-11-15T15:33:42;0.00;0.00;0.00
69222;PMS7003;56514;51.816;-0.026;2022-11-15T15:36:27;0.00;0.00;0.00
69222;PMS7003;56514;51.816;-0.026;2022-11-15T15:39:11;0.00;0.00;0.00
69222;PMS7003;56514;51.816;-0.026;2022-11-15T15:41:56;0.00;0.00;0.00
69222;PMS7003;56514;51.816;-0.026;2022-11-15T15:44:41;0.00;0.00;0.00
69222;PMS7003;56514;51.816;-0.026;2022-11-15T15:47:26;0.00;0.00;0.00
69222;PMS7003;56514;51.816;-0.026;2022-11-15T15:53:12;0.00;0.00;0.00
69222;PMS7003;56514;51.816;-0.026;2022-11-15T15:55:57;0.00;0.00;0.00
69222;PMS7003;56514;51.816;-0.026;2022-11-15T15:58:42;0.00;0.00;0.00
69222;PMS7003;56514;51.816;-0.026;2022-11-15T16:01:27;0.75;0.75;0.75
69222;PMS7003;56514;51.816;-0.026;2022-11-15T16:04:12;1.00;1.00;1.00
69222;PMS7003;56514;51.816;-0.026;2022-11-15T16:07:00;0.00;0.00;0.00
69222;PMS7003;56514;51.816;-0.026;2022-11-15T16:09:45;2.00;2.00;1.75
69222;PMS7003;56514;51.816;-0.026;2022-11-15T16:12:45;0.75;0.75;0.75
69222;PMS7003;56514;51.816;-0.026;2022-11-15T16:15:31;1.00;1.00;1.00
69222;PMS7003;56514;51.816;-0.026;2022-11-15T16:18:16;0.75;0.75;0.75
69222;PMS7003;56514;51.816;-0.026;2022-11-15T16:21:02;0.25;0.25;0.25
69222;PMS7003;56514;51.816;-0.026;2022-11-15T16:23:47;1.00;1.00;1.00
69222;PMS7003;56514;51.816;-0.026;2022-11-15T16:26:31;1.50;1.50;1.50
69222;PMS7003;56514;51.816;-0.026;2022-11-15T16:29:19;2.00;2.00;2.00
69222;PMS7003;56514;51.816;-0.026;2022-11-15T16:32:04;5.25;5.25;5.25
69222;PMS7003;56514;51.816;-0.026;2022-11-15T16:34:48;29.50;29.50;21.25
69222;PMS7003;56514;51.816;-0.026;2022-11-15T16:37:35;18.00;18.00;15.50
69222;PMS7003;56514;51.816;-0.026;2022-11-15T16:40:30;9.00;9.00;8.00
69222;PMS7003;56514;51.816;-0.026;2022-11-15T16:43:18;5.00;5.00;4.00
69222;PMS7003;56514;51.816;-0.026;2022-11-15T16:46:12;3.50;3.50;3.50
69222;PMS7003;56514;51.816;-0.026;2022-11-15T16:48:58;0.00;0.00;0.00
69222;PMS7003;56514;51.816;-0.026;2022-11-15T16:51:47;0.00;0.00;0.00
69222;PMS7003;56514;51.816;-0.026;2022-11-15T16:54:36;0.00;0.00;0.00
69222;PMS7003;56514;51.816;-0.026;2022-11-15T16:57:21;0.00;0.00;0.00
69222;PMS7003;56514;51.816;-0.026;2022-11-15T17:00:06;0.00;0.00;0.00
69222;PMS7003;56514;51.816;-0.026;2022-11-15T17:02:53;0.00;0.00;0.00
69222;PMS7003;56514;51.816;-0.026;2022-11-15T17:05:40;0.00;0.00;0.00
69222;PMS7003;56514;51.816;-0.026;2022-11-15T17:08:25;0.25;0.25;0.25
69222;PMS7003;56514;51.816;-0.026;2022-11-15T17:11:16;1.00;1.00;1.00
69222;PMS7003;56514;51.816;-0.026;2022-11-15T17:14:03;1.00;1.00;1.00
69222;PMS7003;56514;51.816;-0.026;2022-11-15T17:16:48;0.00;0.00;0.00
69222;PMS7003;56514;51.816;-0.026;2022-11-15T17:19:36;1.00;1.00;0.75
69222;PMS7003;56514;51.816;-0.026;2022-11-15T17:22:21;1.00;1.00;0.25
69222;PMS7003;56514;51.816;-0.026;2022-11-15T17:25:07;0.00;0.00;0.00
69222;PMS7003;56514;51.816;-0.026;2022-11-15T17:27:52;0.75;0.75;0.75
69222;PMS7003;56514;51.816;-0.026;2022-11-15T17:30:39;1.50;1.50;1.50
69222;PMS7003;56514;51.816;-0.026;2022-11-15T17:33:25;2.00;2.00;2.00
69222;PMS7003;56514;51.816;-0.026;2022-11-15T17:36:10;3.50;3.50;2.00
69222;PMS7003;56514;51.816;-0.026;2022-11-15T17:38:56;2.50;2.50;2.00
69222;PMS7003;56514;51.816;-0.026;2022-11-15T17:41:41;2.50;2.50;2.00
69222;PMS7003;56514;51.816;-0.026;2022-11-15T17:44:25;1.00;1.00;1.00
69222;PMS7003;56514;51.816;-0.026;2022-11-15T17:47:10;0.00;0.00;0.00
69222;PMS7003;56514;51.816;-0.026;2022-11-15T17:49:55;0.00;0.00;0.00
69222;PMS7003;56514;51.816;-0.026;2022-11-15T17:52:40;0.00;0.00;0.00
69222;PMS7003;56514;51.816;-0.026;2022-11-15T17:55:24;0.00;0.00;0.00
69222;PMS7003;56514;51.816;-0.026;2022-11-15T17:58:09;0.00;0.00;0.00
69222;PMS7003;56514;51.816;-0.026;2022-11-15T18:00:54;0.00;0.00;0.00
69222;PMS7003;56514;51.816;-0.026;2022-11-15T18:03:39;0.00;0.00;0.00
69222;PMS7003;56514;51.816;-0.026;2022-11-15T18:06:23;0.00;0.00;0.00
69222;PMS7003;56514;51.816;-0.026;2022-11-15T18:09:08;0.00;0.00;0.00
69222;PMS7003;56514;51.816;-0.026;2022-11-15T18:11:53;0.00;0.00;0.00
69222;PMS7003;56514;51.816;-0.026;2022-11-15T18:14:38;0.00;0.00;0.00
69222;PMS7003;56514;51.816;-0.026;2022-11-15T18:17:22;0.00;0.00;0.00
69222;PMS7003;56514;51.816;-0.026;2022-11-15T18:20:07;1.00;1.00;1.00
69222;PMS7003;56514;51.816;-0.026;2022-11-15T18:22:53;1.00;1.00;1.00
69222;PMS7003;56514;51.816;-0.026;2022-11-15T18:25:38;1.00;1.00;1.00